createdAt,value
2023-11-30T00:01:10.733Z,83.97
2023-11-30T00:03:37.715Z,83.67
2023-11-30T00:06:04.778Z,83.08
2023-11-30T00:08:31.557Z,82.62
2023-11-30T00:10:58.320Z,82.81
2023-11-30T00:13:25.091Z,83.25
2023-11-30T00:15:51.818Z,83.39
2023-11-30T00:18:18.742Z,83.42
2023-11-30T00:20:45.569Z,83.56
2023-11-30T00:23:12.911Z,83.56
2023-11-30T00:25:39.658Z,83.37
2023-11-30T00:28:06.557Z,83.13
2023-11-30T00:30:33.371Z,83.01
2023-11-30T00:33:00.350Z,83.11
2023-11-30T00:35:27.692Z,82.99
2023-11-30T00:37:54.500Z,82.75
2023-11-30T00:40:21.166Z,83.06
2023-11-30T00:42:47.966Z,83.24
2023-11-30T00:45:15.034Z,83.37
2023-11-30T00:47:41.803Z,83.41
2023-11-30T00:50:08.926Z,83.45
2023-11-30T00:52:35.650Z,83.41
2023-11-30T00:55:02.506Z,83.23
2023-11-30T00:57:29.317Z,83.30
2023-11-30T00:59:56.314Z,83.60
2023-11-30T01:02:23.133Z,83.53
2023-11-30T01:04:49.913Z,83.39
2023-11-30T01:07:16.655Z,83.12
2023-11-30T01:09:43.499Z,82.81
2023-11-30T01:12:10.250Z,82.52
2023-11-30T01:14:37.145Z,82.53
2023-11-30T01:17:04.084Z,82.73
2023-11-30T01:19:30.921Z,83.18
2023-11-30T01:21:57.953Z,83.23
2023-11-30T01:24:24.926Z,83.36
2023-11-30T01:26:51.724Z,83.36
2023-11-30T01:29:18.398Z,83.47
2023-11-30T01:31:45.167Z,83.63
2023-11-30T01:34:12.196Z,83.59
2023-11-30T01:36:38.927Z,83.06
2023-11-30T01:39:05.700Z,82.76
2023-11-30T01:41:32.444Z,82.83
2023-11-30T01:43:59.184Z,82.64
2023-11-30T01:46:25.971Z,82.34
2023-11-30T01:48:52.777Z,82.49
2023-11-30T01:51:19.544Z,82.21
2023-11-30T01:53:46.313Z,82.36
2023-11-30T01:56:13.111Z,82.58
2023-11-30T01:58:39.905Z,82.68
2023-11-30T02:01:07.117Z,82.93
2023-11-30T02:03:34.096Z,83.38
2023-11-30T02:06:00.923Z,83.62
2023-11-30T02:08:27.759Z,83.67
2023-11-30T02:10:54.551Z,83.92
2023-11-30T02:13:21.257Z,83.90
2023-11-30T02:15:48.294Z,83.93
2023-11-30T02:18:15.267Z,83.75
2023-11-30T02:20:42.834Z,83.51
2023-11-30T02:23:09.630Z,83.40
2023-11-30T02:25:36.404Z,83.31
2023-11-30T02:28:03.229Z,83.29
2023-11-30T02:30:29.994Z,83.27
2023-11-30T02:32:56.889Z,83.24
2023-11-30T02:35:24.093Z,83.11
2023-11-30T02:37:50.860Z,82.97
2023-11-30T02:40:17.681Z,82.85
2023-11-30T02:42:44.459Z,82.83
2023-11-30T02:45:11.420Z,82.75
2023-11-30T02:47:38.192Z,83.10
2023-11-30T02:50:05.263Z,83.37
2023-11-30T02:52:32.220Z,83.38
2023-11-30T02:54:58.914Z,83.48
2023-11-30T02:57:25.680Z,83.61
2023-11-30T02:59:52.607Z,83.81
2023-11-30T03:02:19.483Z,83.90
2023-11-30T03:04:46.551Z,83.67
2023-11-30T03:07:13.304Z,83.55
2023-11-30T03:09:40.148Z,83.61
2023-11-30T03:12:07.117Z,83.46
2023-11-30T03:14:34.102Z,83.22
2023-11-30T03:17:00.798Z,83.23
2023-11-30T03:19:27.605Z,83.14
2023-11-30T03:21:54.431Z,83.21
2023-11-30T03:24:21.719Z,83.76
2023-11-30T03:26:48.474Z,83.93
2023-11-30T03:29:15.269Z,83.63
2023-11-30T03:31:42.106Z,83.35
2023-11-30T03:34:08.956Z,83.11
2023-11-30T03:36:35.849Z,83.30
2023-11-30T03:39:02.761Z,83.22
2023-11-30T03:41:29.562Z,82.96
2023-11-30T03:43:56.274Z,83.14
2023-11-30T03:46:25.448Z,83.43
2023-11-30T03:48:53.663Z,83.39
2023-11-30T03:51:20.554Z,83.32
2023-11-30T03:53:47.440Z,83.30
2023-11-30T03:56:14.418Z,83.27
2023-11-30T03:58:41.101Z,83.36
2023-11-30T04:01:08.153Z,83.41
2023-11-30T04:03:34.949Z,83.37
2023-11-30T04:06:01.839Z,83.03
2023-11-30T04:08:28.635Z,82.73
2023-11-30T04:10:55.433Z,82.62
2023-11-30T04:13:22.285Z,82.62
2023-11-30T04:15:49.036Z,82.70
2023-11-30T04:18:15.943Z,82.84
2023-11-30T04:20:42.794Z,83.11
2023-11-30T04:23:09.955Z,83.07
2023-11-30T04:25:36.854Z,82.55
2023-11-30T04:28:03.908Z,82.50
2023-11-30T04:30:30.771Z,82.43
2023-11-30T04:32:57.723Z,82.20
2023-11-30T04:35:24.525Z,82.24
2023-11-30T04:37:51.302Z,82.45
2023-11-30T04:40:19.777Z,82.47
2023-11-30T04:42:46.576Z,82.43
2023-11-30T04:45:13.370Z,82.48
2023-11-30T04:47:40.353Z,82.88
2023-11-30T04:50:07.908Z,83.36
2023-11-30T04:52:34.791Z,82.99
2023-11-30T04:55:01.979Z,82.84
2023-11-30T04:57:28.817Z,82.79
2023-11-30T04:59:55.957Z,82.74
2023-11-30T05:02:23.355Z,82.70
2023-11-30T05:04:50.424Z,82.69
2023-11-30T05:07:17.725Z,82.78
2023-11-30T05:09:44.634Z,82.91
2023-11-30T05:12:11.656Z,82.80
2023-11-30T05:14:38.428Z,82.66
2023-11-30T05:17:05.461Z,82.54
2023-11-30T05:19:32.346Z,82.60
2023-11-30T05:21:59.331Z,82.38
2023-11-30T05:24:26.187Z,82.23
2023-11-30T05:26:53.003Z,82.06
2023-11-30T05:29:19.804Z,82.06
2023-11-30T05:31:46.629Z,82.02
2023-11-30T05:34:13.475Z,82.39
2023-11-30T05:36:40.172Z,82.48
2023-11-30T05:39:08.313Z,82.34
2023-11-30T05:41:35.238Z,82.45
2023-11-30T05:44:03.721Z,82.55
2023-11-30T05:46:31.082Z,82.30
2023-11-30T05:48:57.911Z,81.69
2023-11-30T05:51:24.846Z,81.63
2023-11-30T05:53:51.620Z,81.71
2023-11-30T05:56:18.350Z,81.67
2023-11-30T05:58:45.073Z,81.30
2023-11-30T06:01:12.646Z,80.90
2023-11-30T06:03:39.666Z,79.67
2023-11-30T06:06:09.775Z,77.72
2023-11-30T06:08:36.540Z,76.14
2023-11-30T06:11:03.500Z,75.32
2023-11-30T06:13:30.342Z,75.51
2023-11-30T06:15:57.352Z,75.73
2023-11-30T06:18:25.269Z,75.93
2023-11-30T06:20:52.131Z,75.69
2023-11-30T06:23:18.858Z,75.46
2023-11-30T06:25:45.657Z,75.13
2023-11-30T06:28:12.424Z,74.23
2023-11-30T06:30:39.629Z,73.11
2023-11-30T06:33:06.649Z,70.63
2023-11-30T06:35:33.391Z,67.44
2023-11-30T06:38:00.300Z,65.11
2023-11-30T06:40:27.139Z,64.03
2023-11-30T06:42:53.936Z,62.12
2023-11-30T06:45:21.002Z,62.50
2023-11-30T06:47:47.847Z,61.96
2023-11-30T06:50:14.765Z,62.79
2023-11-30T06:52:41.504Z,63.92
2023-11-30T06:55:08.413Z,64.24
2023-11-30T06:57:36.686Z,65.30
2023-11-30T07:00:05.035Z,65.35
2023-11-30T07:02:31.780Z,65.35
2023-11-30T07:04:58.691Z,66.38
2023-11-30T07:07:31.704Z,67.02
2023-11-30T07:10:03.149Z,67.73
2023-11-30T07:12:30.018Z,68.80
2023-11-30T07:14:56.934Z,68.56
2023-11-30T07:17:25.174Z,68.16
2023-11-30T07:19:53.733Z,67.77
2023-11-30T07:22:21.929Z,66.84
2023-11-30T07:24:49.136Z,66.66
2023-11-30T07:27:22.324Z,65.63
2023-11-30T07:29:49.265Z,63.30
2023-11-30T07:32:18.757Z,63.09
2023-11-30T07:34:45.994Z,63.67
2023-11-30T07:37:15.321Z,62.72
2023-11-30T07:39:42.175Z,62.88
2023-11-30T07:42:09.020Z,61.53
2023-11-30T07:44:36.586Z,60.86
2023-11-30T07:47:03.598Z,56.00
2023-11-30T07:49:30.343Z,54.27
2023-11-30T07:51:57.328Z,52.62
2023-11-30T07:54:24.148Z,53.13
2023-11-30T07:56:51.181Z,54.38
2023-11-30T07:59:18.295Z,55.58
2023-11-30T08:01:45.255Z,56.62
2023-11-30T08:04:12.053Z,58.63
2023-11-30T08:06:40.310Z,58.75
2023-11-30T08:09:07.588Z,59.80
2023-11-30T08:11:34.505Z,59.72
2023-11-30T08:14:01.389Z,59.73
2023-11-30T08:16:28.162Z,61.05
2023-11-30T08:18:55.046Z,61.06
2023-11-30T08:21:23.174Z,62.12
2023-11-30T08:23:50.292Z,63.99
2023-11-30T08:26:17.352Z,64.94
2023-11-30T08:28:44.575Z,65.25
2023-11-30T08:31:11.710Z,65.37
2023-11-30T08:33:38.517Z,63.30
2023-11-30T08:36:06.053Z,60.11
2023-11-30T08:38:37.576Z,60.38
2023-11-30T08:41:04.686Z,59.64
2023-11-30T08:45:01.494Z,58.61
2023-11-30T08:47:28.335Z,60.50
2023-11-30T08:49:55.148Z,59.32
2023-11-30T08:52:21.935Z,60.56
2023-11-30T08:54:48.734Z,59.34
2023-11-30T08:57:15.501Z,59.42
2023-11-30T08:59:42.367Z,60.39
2023-11-30T09:02:09.229Z,58.32
2023-11-30T09:04:36.138Z,57.36
2023-11-30T09:07:02.967Z,54.46
2023-11-30T09:09:29.754Z,56.91
2023-11-30T09:11:56.654Z,53.22
2023-11-30T09:14:24.136Z,51.40
2023-11-30T09:16:51.060Z,51.27
2023-11-30T09:19:17.871Z,55.17
2023-11-30T09:21:46.031Z,55.69
2023-11-30T09:24:12.902Z,55.01
2023-11-30T09:26:41.364Z,58.43
2023-11-30T09:29:10.109Z,57.68
2023-11-30T09:31:42.394Z,59.22
2023-11-30T09:34:10.332Z,58.34
2023-11-30T09:36:37.837Z,58.38
2023-11-30T09:39:04.684Z,59.16
2023-11-30T09:41:31.467Z,59.79
2023-11-30T09:43:59.754Z,58.02
2023-11-30T09:46:26.983Z,57.58
2023-11-30T09:48:53.805Z,59.13
2023-11-30T09:51:21.259Z,56.22
2023-11-30T09:53:48.065Z,56.30
2023-11-30T09:56:14.872Z,55.66
2023-11-30T09:58:43.609Z,56.68
2023-11-30T10:01:10.438Z,53.79
2023-11-30T10:03:39.341Z,54.98
2023-11-30T10:06:06.774Z,56.29
2023-11-30T10:08:33.630Z,54.34
2023-11-30T10:11:00.366Z,56.79
2023-11-30T10:13:27.216Z,55.35
2023-11-30T10:15:54.561Z,57.00
2023-11-30T10:18:21.474Z,53.13
2023-11-30T10:20:48.635Z,53.14
2023-11-30T10:23:15.465Z,53.02
2023-11-30T10:25:42.357Z,53.85
2023-11-30T10:28:15.051Z,53.95
2023-11-30T10:30:43.705Z,56.52
2023-11-30T10:33:15.456Z,55.27
2023-11-30T10:35:45.108Z,53.69
2023-11-30T10:38:16.702Z,53.40
2023-11-30T10:40:43.509Z,54.67
2023-11-30T10:43:10.307Z,52.85
2023-11-30T10:45:38.674Z,54.72
2023-11-30T10:49:41.537Z,55.04
2023-11-30T10:52:08.698Z,54.73
2023-11-30T10:54:52.200Z,54.28
2023-11-30T10:57:20.178Z,55.30
2023-11-30T10:59:47.047Z,54.46
2023-11-30T11:02:13.978Z,55.40
2023-11-30T11:04:42.171Z,54.79
2023-11-30T11:07:13.499Z,54.36
2023-11-30T11:09:53.175Z,53.66
2023-11-30T11:12:27.155Z,56.46
2023-11-30T11:15:14.179Z,56.33
2023-11-30T11:17:53.531Z,55.67
2023-11-30T11:20:26.176Z,52.04
2023-11-30T11:23:05.840Z,51.99
2023-11-30T11:25:47.916Z,54.32
2023-11-30T11:28:15.464Z,49.92
2023-11-30T11:30:47.266Z,51.12
2023-11-30T11:33:18.522Z,49.97
2023-11-30T11:35:45.494Z,49.55
2023-11-30T11:38:12.247Z,49.09
2023-11-30T11:40:42.961Z,49.33
2023-11-30T11:43:10.271Z,50.51
2023-11-30T11:45:38.428Z,48.50
2023-11-30T11:48:05.709Z,47.82
2023-11-30T11:50:32.556Z,48.26
2023-11-30T11:53:00.824Z,48.79
2023-11-30T11:55:27.714Z,47.99
2023-11-30T11:57:57.222Z,47.90
2023-11-30T12:00:25.953Z,45.85
2023-11-30T12:02:53.114Z,47.01
2023-11-30T12:05:23.209Z,48.84
2023-11-30T12:07:53.965Z,48.30
2023-11-30T12:10:28.852Z,49.39
2023-11-30T12:12:57.459Z,49.93
2023-11-30T12:15:24.299Z,49.94
2023-11-30T12:17:51.280Z,50.18
2023-11-30T12:20:21.676Z,50.48
2023-11-30T12:22:48.621Z,50.53
2023-11-30T12:25:15.572Z,49.83
2023-11-30T12:27:42.388Z,51.74
2023-11-30T12:30:10.108Z,50.96
2023-11-30T12:32:39.348Z,50.94
2023-11-30T12:35:07.042Z,50.62
2023-11-30T12:37:34.239Z,50.83
2023-11-30T12:40:01.120Z,49.98
2023-11-30T12:42:28.231Z,49.57
2023-11-30T12:44:55.106Z,50.50
2023-11-30T12:47:22.496Z,48.27
2023-11-30T12:49:49.331Z,47.00
2023-11-30T12:52:16.293Z,47.73
2023-11-30T12:54:43.673Z,48.85
2023-11-30T12:57:10.518Z,47.05
2023-11-30T12:59:38.070Z,44.63
2023-11-30T13:02:07.325Z,43.30
2023-11-30T13:04:35.072Z,43.84
2023-11-30T13:07:01.942Z,43.50
2023-11-30T13:09:33.623Z,43.69
2023-11-30T13:12:00.873Z,44.40
2023-11-30T13:14:27.665Z,46.34
2023-11-30T13:16:54.567Z,47.92
2023-11-30T13:19:24.663Z,50.09
2023-11-30T13:21:53.073Z,51.16
2023-11-30T13:24:20.552Z,51.64
2023-11-30T13:26:49.255Z,54.11
2023-11-30T13:29:16.380Z,54.53
2023-11-30T13:31:43.206Z,54.96
2023-11-30T13:34:09.968Z,55.50
2023-11-30T13:36:36.787Z,56.60
2023-11-30T13:39:06.227Z,56.95
2023-11-30T13:41:33.268Z,57.12
2023-11-30T13:44:00.027Z,57.53
2023-11-30T13:46:26.986Z,58.17
2023-11-30T13:48:53.846Z,58.94
2023-11-30T13:51:21.156Z,60.42
2023-11-30T13:53:48.239Z,61.16
2023-11-30T13:56:16.366Z,60.66
2023-11-30T13:58:43.365Z,60.62
2023-11-30T14:01:11.344Z,61.72
2023-11-30T14:03:38.910Z,61.68
2023-11-30T14:06:06.230Z,61.68
2023-11-30T14:08:33.410Z,61.95
2023-11-30T14:11:00.203Z,62.06
2023-11-30T14:13:27.024Z,62.68
2023-11-30T14:15:53.878Z,62.59
2023-11-30T14:18:20.921Z,61.97
2023-11-30T14:20:49.388Z,62.41
2023-11-30T14:23:16.142Z,63.38
2023-11-30T14:25:42.974Z,63.67
2023-11-30T14:28:12.786Z,63.80
2023-11-30T14:30:40.718Z,64.15
2023-11-30T14:33:10.698Z,64.66
2023-11-30T14:35:39.260Z,64.82
2023-11-30T14:38:06.531Z,64.46
2023-11-30T14:40:33.323Z,63.79
2023-11-30T14:43:00.397Z,63.80
2023-11-30T14:45:28.097Z,64.10
2023-11-30T14:47:55.036Z,64.26
2023-11-30T14:50:21.986Z,64.63
2023-11-30T14:52:48.806Z,64.77
2023-11-30T14:55:15.797Z,63.49
2023-11-30T14:57:43.447Z,63.72
2023-11-30T15:00:14.115Z,64.25
2023-11-30T15:02:43.150Z,65.08
2023-11-30T15:05:14.311Z,64.57
2023-11-30T15:07:41.344Z,65.19
2023-11-30T15:10:08.896Z,64.44
2023-11-30T15:12:37.425Z,64.16
2023-11-30T15:15:14.116Z,64.27
2023-11-30T15:17:44.159Z,64.16
2023-11-30T15:20:13.299Z,63.70
2023-11-30T15:22:40.780Z,63.71
2023-11-30T15:25:08.684Z,64.15
2023-11-30T15:27:36.419Z,63.89
2023-11-30T15:30:04.629Z,63.56
2023-11-30T15:32:31.672Z,63.84
2023-11-30T15:34:58.537Z,63.84
2023-11-30T15:37:25.265Z,63.75
2023-11-30T15:39:54.258Z,63.80
2023-11-30T15:42:21.356Z,63.63
2023-11-30T15:44:48.238Z,63.68
2023-11-30T15:47:15.034Z,63.02
2023-11-30T15:49:41.829Z,63.15
2023-11-30T15:52:08.554Z,63.62
2023-11-30T15:54:35.334Z,64.02
2023-11-30T15:57:02.183Z,63.10
2023-11-30T15:59:28.948Z,62.47
2023-11-30T16:01:55.831Z,62.67
2023-11-30T16:04:22.698Z,62.53
2023-11-30T16:06:49.684Z,63.31
2023-11-30T16:09:16.526Z,63.71
2023-11-30T16:11:43.390Z,63.56
2023-11-30T16:14:10.299Z,63.49
2023-11-30T16:16:41.173Z,64.04
2023-11-30T16:19:08.160Z,63.80
2023-11-30T16:21:35.277Z,63.70
2023-11-30T16:24:02.098Z,63.40
2023-11-30T16:26:28.933Z,64.14
2023-11-30T16:28:55.753Z,64.60
2023-11-30T16:31:22.644Z,64.91
2023-11-30T16:33:52.095Z,64.68
2023-11-30T16:36:19.566Z,65.21
2023-11-30T16:38:46.560Z,64.53
2023-11-30T16:41:16.396Z,64.30
2023-11-30T16:43:43.141Z,64.45
2023-11-30T16:46:10.132Z,64.94
2023-11-30T16:48:37.089Z,65.09
2023-11-30T16:51:10.537Z,65.33
2023-11-30T16:53:37.516Z,65.28
2023-11-30T16:56:05.176Z,64.77
2023-11-30T16:58:32.773Z,64.65
2023-11-30T17:00:59.847Z,64.88
2023-11-30T17:03:27.052Z,65.28
2023-11-30T17:05:54.117Z,64.99
2023-11-30T17:08:21.097Z,65.09
2023-11-30T17:10:48.138Z,65.06
2023-11-30T17:13:15.058Z,65.23
2023-11-30T17:15:41.995Z,65.09
2023-11-30T17:18:08.803Z,65.05
2023-11-30T17:20:35.620Z,65.09
2023-11-30T17:23:04.111Z,65.56
2023-11-30T17:25:31.122Z,65.17
2023-11-30T17:27:59.873Z,65.41
2023-11-30T17:30:26.697Z,64.94
2023-11-30T17:32:53.889Z,65.13
2023-11-30T17:35:20.968Z,64.95
2023-11-30T17:37:47.879Z,64.97
2023-11-30T17:40:14.944Z,65.05
2023-11-30T17:42:41.754Z,64.96
2023-11-30T17:45:10.653Z,64.27
2023-11-30T17:47:37.889Z,63.85
2023-11-30T17:50:05.125Z,63.52
2023-11-30T17:52:31.923Z,63.45
2023-11-30T17:54:58.943Z,63.15
2023-11-30T17:57:25.832Z,63.74
2023-11-30T17:59:54.414Z,63.15
2023-11-30T18:02:22.854Z,62.85
2023-11-30T18:04:49.856Z,62.64
2023-11-30T18:07:16.705Z,62.90
2023-11-30T18:09:44.161Z,62.85
2023-11-30T18:12:11.003Z,62.86
2023-11-30T18:14:38.727Z,62.95
2023-11-30T18:17:06.001Z,63.27
2023-11-30T18:19:32.898Z,62.89
2023-11-30T18:21:59.766Z,63.24
2023-11-30T18:24:31.455Z,63.76
2023-11-30T18:26:59.244Z,64.19
2023-11-30T18:29:26.139Z,64.21
2023-11-30T18:31:53.295Z,64.26
2023-11-30T18:34:20.783Z,64.46
2023-11-30T18:36:47.890Z,64.54
2023-11-30T18:39:16.389Z,64.74
2023-11-30T18:41:43.756Z,65.01
2023-11-30T18:44:12.719Z,65.47
2023-11-30T18:46:40.206Z,65.32
2023-11-30T18:49:07.215Z,65.23
2023-11-30T18:51:35.499Z,65.68
2023-11-30T18:54:02.590Z,65.60
2023-11-30T18:56:29.975Z,65.40
2023-11-30T18:58:57.334Z,65.56
2023-11-30T19:01:25.163Z,65.87
2023-11-30T19:03:52.529Z,65.99
2023-11-30T19:06:20.123Z,65.94
2023-11-30T19:08:47.441Z,66.02
2023-11-30T19:11:14.611Z,65.96
2023-11-30T19:13:43.047Z,66.10
2023-11-30T19:16:21.992Z,66.16
2023-11-30T19:18:50.295Z,65.88
2023-11-30T19:21:17.681Z,66.11
2023-11-30T19:23:46.726Z,66.06
2023-11-30T19:26:14.082Z,66.04
2023-11-30T19:28:41.281Z,66.19
2023-11-30T19:31:08.556Z,65.94
2023-11-30T19:33:35.765Z,65.45
2023-11-30T19:36:02.872Z,65.54
2023-11-30T19:38:30.063Z,65.75
2023-11-30T19:40:57.440Z,65.69
2023-11-30T19:43:25.293Z,65.59
2023-11-30T19:45:53.686Z,65.64
2023-11-30T19:48:20.828Z,65.45
2023-11-30T19:50:47.857Z,65.59
2023-11-30T19:53:17.830Z,65.85
2023-11-30T19:55:48.041Z,65.43
2023-11-30T19:58:15.371Z,65.79
2023-11-30T20:00:44.626Z,65.83
2023-11-30T20:03:12.131Z,66.00
2023-11-30T20:05:39.368Z,65.93
2023-11-30T20:08:06.588Z,65.90
2023-11-30T20:10:33.546Z,66.32
2023-11-30T20:13:02.322Z,66.22
2023-11-30T20:15:31.111Z,66.56
2023-11-30T20:17:58.582Z,66.71
2023-11-30T20:20:25.690Z,66.79
2023-11-30T20:22:52.552Z,67.46
2023-11-30T20:25:19.518Z,67.60
2023-11-30T20:27:46.517Z,67.48
2023-11-30T20:30:13.702Z,67.75
2023-11-30T20:32:42.336Z,67.99
2023-11-30T20:35:09.720Z,68.60
2023-11-30T20:37:36.501Z,68.82
2023-11-30T20:40:04.156Z,69.11
2023-11-30T20:42:31.280Z,68.61
2023-11-30T20:44:58.254Z,68.46
2023-11-30T20:47:26.005Z,68.55
2023-11-30T20:49:53.209Z,68.73
2023-11-30T20:52:20.165Z,69.11
2023-11-30T20:54:50.017Z,69.62
2023-11-30T20:57:16.837Z,70.32
2023-11-30T20:59:43.586Z,70.77
2023-11-30T21:02:11.219Z,71.06
2023-11-30T21:04:38.556Z,70.72
2023-11-30T21:07:07.200Z,70.61
2023-11-30T21:09:34.108Z,70.26
2023-11-30T21:12:01.040Z,70.19
2023-11-30T21:14:27.818Z,69.82
2023-11-30T21:16:54.802Z,69.42
2023-11-30T21:19:21.760Z,68.32
2023-11-30T21:21:48.780Z,66.89
2023-11-30T21:24:16.158Z,66.45
2023-11-30T21:26:43.145Z,65.98
2023-11-30T21:29:10.101Z,67.09
2023-11-30T21:31:39.051Z,66.96
2023-11-30T21:34:06.328Z,67.20
2023-11-30T21:36:33.377Z,67.81
2023-11-30T21:39:00.442Z,68.91
2023-11-30T21:41:27.208Z,68.57
2023-11-30T21:43:54.099Z,69.01
2023-11-30T21:46:20.941Z,68.25
2023-11-30T21:48:47.944Z,68.08
2023-11-30T21:51:14.824Z,67.83
2023-11-30T21:53:41.621Z,66.57
2023-11-30T21:56:10.812Z,67.22
2023-11-30T21:58:38.088Z,67.53
2023-11-30T22:01:08.436Z,67.97
2023-11-30T22:03:35.489Z,68.31
2023-11-30T22:06:02.439Z,68.46
2023-11-30T22:08:29.208Z,68.84
2023-11-30T22:10:56.131Z,68.75
2023-11-30T22:13:23.262Z,69.33
2023-11-30T22:15:57.168Z,69.59
2023-11-30T22:18:31.048Z,70.12
2023-11-30T22:20:57.911Z,70.46
2023-11-30T22:23:24.859Z,70.70
2023-11-30T22:25:58.609Z,70.76
2023-11-30T22:28:30.427Z,71.26
2023-11-30T22:30:57.177Z,71.01
2023-11-30T22:33:23.924Z,70.95
2023-11-30T22:35:50.827Z,71.27
2023-11-30T22:38:17.808Z,71.67
2023-11-30T22:40:44.690Z,72.13
2023-11-30T22:43:11.527Z,72.58
2023-11-30T22:45:38.874Z,72.69
2023-11-30T22:48:05.844Z,72.27
2023-11-30T22:50:32.712Z,71.94
2023-11-30T22:52:59.725Z,71.89
2023-11-30T22:55:26.726Z,72.08
2023-11-30T22:57:54.208Z,72.27
2023-11-30T23:00:21.664Z,72.03
2023-11-30T23:02:52.291Z,72.26
2023-11-30T23:05:19.350Z,72.38
2023-11-30T23:07:46.202Z,72.58
2023-11-30T23:10:16.447Z,73.03
2023-11-30T23:12:43.300Z,73.45
2023-11-30T23:15:10.551Z,73.09
2023-11-30T23:17:37.484Z,73.27
2023-11-30T23:20:05.434Z,73.44
2023-11-30T23:22:32.218Z,73.39
2023-11-30T23:24:59.064Z,73.50
2023-11-30T23:27:25.851Z,73.88
2023-11-30T23:29:53.146Z,74.05
2023-11-30T23:32:19.913Z,74.67
2023-11-30T23:34:46.635Z,74.95
2023-11-30T23:37:13.445Z,75.16
2023-11-30T23:39:40.237Z,75.17
2023-11-30T23:42:07.138Z,75.50
2023-11-30T23:44:33.971Z,75.90
2023-11-30T23:47:00.845Z,76.09
2023-11-30T23:49:27.744Z,76.14
2023-11-30T23:51:54.517Z,75.96
2023-11-30T23:54:21.352Z,75.88
2023-11-30T23:56:48.127Z,75.92
2023-11-30T23:59:14.870Z,75.93
